createdAt,value
2016-04-05T00:00:46.936Z,27.31
2016-04-05T00:01:46.938Z,27.4
2016-04-05T00:02:46.941Z,27.81
2016-04-05T00:03:46.944Z,27.31
2016-04-05T00:04:46.963Z,27.61
2016-04-05T00:05:46.965Z,27.8
2016-04-05T00:06:46.969Z,27.81
2016-04-05T00:07:46.986Z,27.8
2016-04-05T00:08:46.974Z,27.81
2016-04-05T00:09:46.991Z,27.4
2016-04-05T00:10:46.994Z,27.8
2016-04-05T00:11:46.997Z,27.5
2016-04-05T00:12:46.843Z,27.89
2016-04-05T00:13:47.002Z,27.98
2016-04-05T00:14:47.020Z,27.98
2016-04-05T00:15:47.039Z,27.98
2016-04-05T00:16:47.026Z,27.6
2016-04-05T00:17:47.028Z,27.98
2016-04-05T00:18:47.048Z,27.8
2016-04-05T00:19:47.050Z,27.6
2016-04-05T00:20:47.053Z,27.7
2016-04-05T00:21:47.071Z,27.89
2016-04-05T00:22:47.073Z,27.89
2016-04-05T00:23:47.076Z,27.89
2016-04-05T00:24:47.094Z,27.89
2016-04-05T00:25:47.081Z,27.5
2016-04-05T00:26:47.100Z,27.89
2016-04-05T00:27:47.103Z,27.8
2016-04-05T00:28:47.168Z,27.6
2016-04-05T00:29:47.124Z,27.8
2016-04-05T00:30:47.111Z,27.4
2016-04-05T00:31:47.130Z,27.98
2016-04-05T00:32:47.148Z,27.22
2016-04-05T00:33:47.150Z,27.89
2016-04-05T00:34:47.138Z,27.7
2016-04-05T00:35:47.155Z,27.7
2016-04-05T00:36:47.158Z,27.7
2016-04-05T00:37:47.160Z,27.7
2016-04-05T00:38:47.179Z,27.8
2016-04-05T00:39:47.182Z,27.6
2016-04-05T00:40:47.185Z,27.89
2016-04-05T00:41:47.203Z,27.5
2016-04-05T00:42:47.205Z,27.8
2016-04-05T00:43:47.208Z,27.8
2016-04-05T00:44:47.210Z,27.4
2016-04-05T00:45:47.213Z,27.89
2016-04-05T00:46:47.216Z,27.22
2016-04-05T00:47:47.218Z,27.89
2016-04-05T00:48:47.221Z,27.8
2016-04-05T00:49:47.239Z,27.8
2016-04-05T00:50:47.242Z,27.4
2016-04-05T00:51:47.261Z,27.98
2016-04-05T00:52:47.263Z,27.5
2016-04-05T00:53:47.282Z,27.7
2016-04-05T00:54:47.269Z,27.4
2016-04-05T00:55:47.272Z,27.98
2016-04-05T00:56:47.306Z,27.7
2016-04-05T00:57:47.292Z,27.6
2016-04-05T00:58:47.327Z,27.8
2016-04-05T00:59:47.469Z,27.5
2016-04-05T01:00:47.316Z,27.8
2016-04-05T01:01:47.303Z,27.31
2016-04-05T01:02:47.322Z,27.98
2016-04-05T01:03:47.325Z,27.4
2016-04-05T01:04:47.344Z,27.31
2016-04-05T01:05:47.330Z,27.89
2016-04-05T01:06:47.349Z,27.31
2016-04-05T01:07:47.351Z,27.89
2016-04-05T01:08:47.354Z,27.12
2016-04-05T01:09:47.357Z,27.89
2016-04-05T01:10:47.374Z,27.98
2016-04-05T01:11:47.362Z,27.98
2016-04-05T01:12:47.379Z,27.8
2016-04-05T01:13:47.398Z,27.89
2016-04-05T01:14:47.541Z,27.89
2016-04-05T01:15:47.387Z,27.6
2016-04-05T01:16:47.406Z,27.22
2016-04-05T01:17:47.424Z,27.8
2016-04-05T01:18:47.412Z,27.7
2016-04-05T01:19:47.430Z,27.4
2016-04-05T01:20:47.432Z,27.8
2016-04-05T01:21:47.435Z,27.4
2016-04-05T01:22:47.453Z,27.7
2016-04-05T01:23:47.440Z,27.89
2016-04-05T01:24:47.443Z,27.8
2016-04-05T01:25:47.461Z,27.4
2016-04-05T01:26:47.464Z,27.8
2016-04-05T01:27:47.483Z,27.8
2016-04-05T01:28:47.469Z,27.6
2016-04-05T01:29:47.566Z,27.7
2016-04-05T01:30:47.491Z,27.8
2016-04-05T01:31:47.509Z,27.7
2016-04-05T01:32:47.497Z,27.89
2016-04-05T01:33:47.499Z,27.5
2016-04-05T01:34:47.517Z,27.98
2016-04-05T01:35:47.519Z,27.98
2016-04-05T01:36:47.522Z,27.98
2016-04-05T01:37:47.525Z,27.6
2016-04-05T01:38:47.543Z,28.08
2016-04-05T01:39:47.547Z,27.59
2016-04-05T01:40:47.549Z,28.08
2016-04-05T01:41:47.552Z,27.78
2016-04-05T01:42:47.555Z,27.5
2016-04-05T01:43:47.573Z,27.7
2016-04-05T01:44:47.591Z,27.89
2016-04-05T01:45:47.582Z,27.7
2016-04-05T01:46:47.905Z,27.6
2016-04-05T01:47:47.422Z,27.98
2016-04-05T01:48:47.620Z,28.08
2016-04-05T01:49:49.341Z,27.6
2016-04-05T01:50:47.609Z,28.07
2016-04-05T01:51:47.612Z,27.8
2016-04-05T01:52:47.615Z,27.97
2016-04-05T01:53:47.633Z,27.98
2016-04-05T01:54:47.637Z,27.98
2016-04-05T01:55:47.654Z,27.98
2016-04-05T01:56:47.642Z,28.08
2016-04-05T01:57:47.659Z,27.97
2016-04-05T01:58:47.647Z,27.78
2016-04-05T01:59:47.712Z,27.89
2016-04-05T02:00:47.668Z,27.97
2016-04-05T02:01:47.670Z,28.08
2016-04-05T02:02:47.673Z,27.97
2016-04-05T02:03:47.692Z,28.26
2016-04-05T02:04:47.695Z,28.16
2016-04-05T02:05:47.698Z,27.87
2016-04-05T02:06:47.716Z,28.07
2016-04-05T02:07:47.708Z,27.97
2016-04-05T02:08:47.711Z,27.97
2016-04-05T02:09:47.728Z,27.97
2016-04-05T02:10:47.731Z,27.97
2016-04-05T02:11:47.733Z,27.87
2016-04-05T02:12:47.736Z,27.97
2016-04-05T02:13:47.755Z,27.87
2016-04-05T02:14:47.820Z,27.97
2016-04-05T02:15:47.760Z,27.87
2016-04-05T02:16:47.762Z,27.87
2016-04-05T02:17:47.765Z,27.97
2016-04-05T02:18:47.768Z,27.78
2016-04-05T02:19:47.787Z,27.59
2016-04-05T02:20:47.790Z,28.16
2016-04-05T02:21:47.792Z,27.97
2016-04-05T02:22:47.810Z,27.68
2016-04-05T02:23:47.813Z,27.97
2016-04-05T02:24:47.815Z,28.16
2016-04-05T02:25:47.818Z,27.97
2016-04-05T02:26:47.820Z,27.87
2016-04-05T02:27:47.823Z,27.97
2016-04-05T02:28:47.686Z,28.07
2016-04-05T02:29:47.860Z,27.97
2016-04-05T02:30:47.864Z,27.87
2016-04-05T02:31:47.850Z,28.16
2016-04-05T02:32:47.853Z,27.97
2016-04-05T02:33:47.871Z,27.97
2016-04-05T02:34:47.874Z,27.97
2016-04-05T02:35:47.877Z,27.97
2016-04-05T02:36:47.880Z,27.97
2016-04-05T02:37:47.897Z,27.97
2016-04-05T02:38:47.900Z,27.78
2016-04-05T02:39:47.902Z,28.16
2016-04-05T02:40:47.905Z,27.97
2016-04-05T02:41:47.908Z,27.97
2016-04-05T02:42:47.926Z,28.07
2016-04-05T02:43:47.774Z,27.97
2016-04-05T02:44:48.040Z,28.07
2016-04-05T02:45:47.921Z,27.87
2016-04-05T02:46:47.926Z,27.78
2016-04-05T02:47:47.901Z,28.07
2016-04-05T02:48:47.906Z,27.87
2016-04-05T02:49:47.896Z,27.97
2016-04-05T02:50:47.895Z,27.97
2016-04-05T02:51:47.909Z,27.97
2016-04-05T02:52:47.907Z,27.97
2016-04-05T02:53:47.921Z,27.68
2016-04-05T02:54:47.905Z,27.59
2016-04-05T02:55:47.920Z,27.59
2016-04-05T02:56:47.921Z,27.97
2016-04-05T02:57:47.922Z,27.68
2016-04-05T02:58:47.923Z,27.87
2016-04-05T02:59:47.924Z,27.97
2016-04-05T03:00:47.925Z,27.87
2016-04-05T03:01:47.942Z,27.97
2016-04-05T03:02:47.944Z,27.87
2016-04-05T03:03:47.946Z,27.87
2016-04-05T03:04:47.964Z,27.97
2016-04-05T03:05:47.950Z,27.78
2016-04-05T03:06:47.969Z,27.87
2016-04-05T03:07:47.971Z,27.87
2016-04-05T03:08:47.990Z,27.87
2016-04-05T03:09:47.977Z,27.87
2016-04-05T03:10:47.980Z,27.97
2016-04-05T03:11:47.999Z,27.87
2016-04-05T03:12:48.001Z,27.97
2016-04-05T03:13:48.004Z,27.97
2016-04-05T03:14:48.007Z,27.97
2016-04-05T03:15:48.009Z,27.97
2016-04-05T03:16:48.027Z,27.87
2016-04-05T03:17:48.030Z,27.97
2016-04-05T03:18:48.032Z,27.68
2016-04-05T03:19:48.035Z,28.07
2016-04-05T03:20:48.037Z,27.68
2016-04-05T03:21:48.056Z,28.16
2016-04-05T03:22:48.059Z,27.87
2016-04-05T03:23:48.062Z,27.87
2016-04-05T03:24:48.064Z,28.16
2016-04-05T03:25:48.082Z,27.97
2016-04-05T03:26:48.085Z,27.87
2016-04-05T03:27:48.088Z,27.78
2016-04-05T03:28:48.106Z,28.16
2016-04-05T03:29:48.110Z,28.16
2016-04-05T03:30:48.096Z,27.87
2016-04-05T03:31:48.115Z,28.07
2016-04-05T03:32:48.118Z,27.97
2016-04-05T03:33:48.120Z,27.59
2016-04-05T03:34:48.123Z,28.07
2016-04-05T03:35:48.123Z,27.97
2016-04-05T03:36:48.125Z,28.07
2016-04-05T03:37:48.144Z,27.87
2016-04-05T03:38:48.146Z,27.87
2016-04-05T03:39:48.150Z,27.78
2016-04-05T03:40:48.152Z,27.97
2016-04-05T03:41:48.170Z,28.07
2016-04-05T03:42:48.172Z,28.16
2016-04-05T03:43:48.175Z,27.87
2016-04-05T03:44:48.194Z,27.97
2016-04-05T03:45:48.197Z,27.97
2016-04-05T03:46:48.199Z,27.87
2016-04-05T03:47:48.202Z,27.59
2016-04-05T03:48:48.221Z,27.87
2016-04-05T03:49:48.208Z,27.68
2016-04-05T03:50:48.210Z,27.68
2016-04-05T03:51:48.229Z,27.87
2016-04-05T03:52:48.231Z,27.68
2016-04-05T03:53:48.234Z,27.97
2016-04-05T03:54:48.252Z,27.68
2016-04-05T03:55:48.240Z,27.59
2016-04-05T03:56:48.258Z,27.68
2016-04-05T03:57:48.260Z,27.68
2016-04-05T03:58:48.279Z,27.78
2016-04-05T03:59:48.265Z,27.68
2016-04-05T04:00:48.268Z,27.68
2016-04-05T04:01:48.286Z,28.07
2016-04-05T04:02:48.289Z,27.68
2016-04-05T04:03:48.308Z,27.97
2016-04-05T04:04:48.294Z,27.97
2016-04-05T04:05:48.313Z,27.97
2016-04-05T04:06:48.316Z,27.97
2016-04-05T04:07:48.319Z,27.87
2016-04-05T04:08:48.322Z,27.68
2016-04-05T04:09:48.324Z,27.87
2016-04-05T04:10:48.342Z,27.97
2016-04-05T04:11:48.345Z,27.97
2016-04-05T04:12:48.364Z,27.97
2016-04-05T04:13:48.350Z,27.59
2016-04-05T04:14:48.353Z,27.97
2016-04-05T04:15:48.355Z,27.78
2016-04-05T04:16:48.374Z,28.07
2016-04-05T04:17:48.377Z,27.59
2016-04-05T04:18:48.379Z,27.87
2016-04-05T04:19:48.382Z,27.78
2016-04-05T04:20:48.385Z,27.87
2016-04-05T04:21:48.402Z,27.49
2016-04-05T04:22:48.405Z,27.49
2016-04-05T04:23:48.407Z,27.59
2016-04-05T04:24:48.426Z,28.07
2016-04-05T04:25:48.429Z,27.87
2016-04-05T04:26:48.432Z,27.87
2016-04-05T04:27:48.435Z,27.97
2016-04-05T04:28:48.437Z,27.97
2016-04-05T04:29:48.440Z,28.07
2016-04-05T04:30:48.458Z,27.97
2016-04-05T04:31:48.492Z,27.87
2016-04-05T04:32:48.464Z,27.78
2016-04-05T04:33:48.467Z,27.68
2016-04-05T04:34:48.470Z,27.49
2016-04-05T04:35:48.472Z,28.07
2016-04-05T04:36:48.489Z,27.68
2016-04-05T04:37:48.493Z,27.68
2016-04-05T04:38:48.511Z,27.59
2016-04-05T04:39:48.514Z,27.68
2016-04-05T04:40:48.517Z,27.78
2016-04-05T04:41:48.519Z,27.87
2016-04-05T04:42:48.522Z,27.59
2016-04-05T04:43:48.541Z,27.59
2016-04-05T04:44:48.527Z,27.68
2016-04-05T04:45:48.546Z,27.97
2016-04-05T04:46:48.549Z,27.49
2016-04-05T04:47:48.552Z,28.07
2016-04-05T04:48:48.554Z,27.87
2016-04-05T04:49:48.557Z,27.97
2016-04-05T04:50:48.574Z,27.97
2016-04-05T04:51:48.577Z,27.78
2016-04-05T04:52:48.580Z,27.78
2016-04-05T04:53:48.582Z,27.87
2016-04-05T04:54:48.602Z,27.68
2016-04-05T04:55:48.604Z,27.29
2016-04-05T04:56:48.606Z,27.59
2016-04-05T04:57:48.610Z,27.59
2016-04-05T04:58:48.612Z,27.59
2016-04-05T04:59:48.630Z,27.59
2016-04-05T05:00:48.617Z,27.49
2016-04-05T05:01:48.635Z,27.39
2016-04-05T05:02:48.638Z,27.59
2016-04-05T05:03:48.640Z,27.68
2016-04-05T05:04:48.643Z,27.97
2016-04-05T05:05:48.646Z,27.87
2016-04-05T05:06:48.664Z,27.97
2016-04-05T05:07:48.667Z,27.68
2016-04-05T05:08:48.686Z,27.97
2016-04-05T05:09:48.673Z,27.78
2016-04-05T05:10:48.691Z,27.78
2016-04-05T05:11:48.694Z,27.68
2016-04-05T05:12:48.697Z,28.07
2016-04-05T05:13:48.714Z,27.87
2016-04-05T05:14:48.702Z,27.49
2016-04-05T05:15:48.705Z,27.49
2016-04-05T05:16:48.708Z,27.78
2016-04-05T05:17:48.725Z,27.68
2016-04-05T05:18:48.727Z,27.68
2016-04-05T05:19:48.731Z,27.68
2016-04-05T05:20:48.733Z,27.68
2016-04-05T05:21:48.735Z,27.49
2016-04-05T05:22:48.755Z,27.59
2016-04-05T05:23:48.757Z,27.68
2016-04-05T05:24:48.776Z,27.97
2016-04-05T05:25:48.763Z,27.87
2016-04-05T05:26:48.765Z,27.78
2016-04-05T05:27:48.784Z,27.49
2016-04-05T05:28:48.787Z,27.87
2016-04-05T05:29:48.805Z,27.86
2016-04-05T05:30:48.792Z,27.97
2016-04-05T05:31:48.810Z,27.97
2016-04-05T05:32:48.812Z,27.97
2016-04-05T05:33:48.815Z,28.07
2016-04-05T05:34:48.818Z,28.07
2016-04-05T05:35:48.836Z,27.97
2016-04-05T05:36:48.839Z,27.68
2016-04-05T05:37:48.842Z,27.87
2016-04-05T05:38:48.844Z,27.68
2016-04-05T05:39:48.848Z,27.97
2016-04-05T05:40:48.865Z,27.97
2016-04-05T05:41:48.867Z,27.87
2016-04-05T05:42:48.871Z,27.87
2016-04-05T05:43:48.873Z,27.87
2016-04-05T05:44:48.876Z,28.07
2016-04-05T05:45:48.879Z,27.68
2016-04-05T05:46:48.881Z,27.29
2016-04-05T05:47:48.900Z,27.59
2016-04-05T05:48:48.902Z,27.68
2016-04-05T05:49:48.905Z,27.59
2016-04-05T05:50:48.923Z,27.68
2016-04-05T05:51:48.910Z,27.97
2016-04-05T05:52:48.929Z,27.68
2016-04-05T05:53:48.932Z,27.97
2016-04-05T05:54:48.935Z,27.68
2016-04-05T05:55:48.937Z,27.59
2016-04-05T05:56:48.940Z,27.78
2016-04-05T05:57:48.958Z,27.68
2016-04-05T05:58:48.960Z,27.78
2016-04-05T05:59:48.963Z,27.78
2016-04-05T06:00:48.966Z,27.78
2016-04-05T06:01:48.985Z,27.68
2016-04-05T06:02:48.971Z,27.39
2016-04-05T06:03:48.989Z,27.68
2016-04-05T06:04:48.993Z,27.68
2016-04-05T06:05:48.995Z,27.68
2016-04-05T06:06:49.013Z,27.39
2016-04-05T06:07:49.001Z,27.87
2016-04-05T06:08:49.019Z,27.68
2016-04-05T06:09:49.022Z,27.68
2016-04-05T06:10:49.025Z,27.2
2016-04-05T06:11:49.042Z,27.11
2016-04-05T06:12:49.045Z,27.87
2016-04-05T06:13:49.048Z,27.11
2016-04-05T06:14:49.050Z,27.97
2016-04-05T06:15:49.053Z,27.49
2016-04-05T06:16:49.072Z,27.87
2016-04-05T06:17:49.058Z,27.2
2016-04-05T06:18:49.077Z,27.87
2016-04-05T06:19:49.095Z,27.87
2016-04-05T06:20:49.097Z,27.2
2016-04-05T06:21:49.085Z,27.78
2016-04-05T06:22:49.088Z,27.68
2016-04-05T06:23:49.106Z,27.87
2016-04-05T06:24:49.109Z,27.87
2016-04-05T06:25:49.111Z,27.39
2016-04-05T06:26:49.113Z,27.78
2016-04-05T06:27:49.133Z,27.39
2016-04-05T06:28:49.119Z,27.78
2016-04-05T06:29:49.137Z,27.97
2016-04-05T06:30:49.141Z,27.97
2016-04-05T06:31:49.159Z,27.68
2016-04-05T06:32:49.162Z,27.2
2016-04-05T06:33:49.164Z,27.78
2016-04-05T06:34:49.167Z,27.68
2016-04-05T06:35:49.170Z,27.68
2016-04-05T06:36:49.172Z,27.39
2016-04-05T06:37:49.175Z,27.39
2016-04-05T06:38:49.193Z,27.39
2016-04-05T06:39:49.196Z,27.78
2016-04-05T06:40:49.198Z,27.87
2016-04-05T06:41:49.201Z,27.87
2016-04-05T06:42:49.204Z,27.68
2016-04-05T06:43:49.222Z,27.39
2016-04-05T06:44:49.225Z,27.39
2016-04-05T06:45:49.228Z,27.39
2016-04-05T06:46:49.231Z,27.87
2016-04-05T06:47:49.249Z,27.49
2016-04-05T06:48:49.251Z,27.2
2016-04-05T06:49:49.270Z,27.78
2016-04-05T06:50:49.257Z,27.39
2016-04-05T06:51:49.260Z,27.78
2016-04-05T06:52:49.278Z,27.87
2016-04-05T06:53:49.280Z,27.68
2016-04-05T06:54:49.283Z,27.68
2016-04-05T06:55:49.286Z,27.78
2016-04-05T06:56:49.304Z,27.59
2016-04-05T06:57:49.307Z,27.2
2016-04-05T06:58:49.310Z,27.78
2016-04-05T06:59:49.312Z,26.91
2016-04-05T07:00:49.315Z,27.78
2016-04-05T07:01:49.333Z,27.11
2016-04-05T07:02:49.335Z,27.39
2016-04-05T07:03:49.338Z,27.78
2016-04-05T07:04:49.341Z,27.49
2016-04-05T07:05:49.343Z,27.59
2016-04-05T07:06:49.362Z,27.59
2016-04-05T07:07:49.398Z,27.59
2016-04-05T07:08:49.400Z,27.39
2016-04-05T07:09:49.388Z,26.91
2016-04-05T07:10:49.391Z,27.01
2016-04-05T07:11:49.393Z,27.49
2016-04-05T07:12:49.396Z,27.29
2016-04-05T07:13:49.414Z,27.59
2016-04-05T07:14:49.417Z,27.2
2016-04-05T07:15:49.575Z,27.2
2016-04-05T07:16:49.407Z,27.01
2016-04-05T07:17:49.425Z,27.59
2016-04-05T07:18:49.444Z,27.29
2016-04-05T07:19:49.446Z,27.59
2016-04-05T07:20:49.449Z,27.12
2016-04-05T07:21:49.452Z,27.12
2016-04-05T07:22:49.469Z,26.82
2016-04-05T07:23:49.457Z,26.54
2016-04-05T07:24:49.460Z,26.45
2016-04-05T07:25:49.462Z,26.17
2016-04-05T07:26:49.480Z,25.97
2016-04-05T07:27:49.482Z,26.07
2016-04-05T07:28:49.485Z,25.97
2016-04-05T07:29:49.488Z,25.89
2016-04-05T07:30:49.490Z,25.6
2016-04-05T07:31:49.510Z,25.21
2016-04-05T07:32:49.528Z,25.4
2016-04-05T07:33:49.514Z,25.5
2016-04-05T07:34:49.533Z,25.21
2016-04-05T07:35:49.536Z,25.02
2016-04-05T07:36:49.539Z,24.92
2016-04-05T07:37:49.541Z,24.65
2016-04-05T07:38:49.560Z,24.65
2016-04-05T07:39:49.562Z,24.55
2016-04-05T07:40:49.564Z,24.16
2016-04-05T07:41:49.583Z,24.55
2016-04-05T07:42:49.586Z,24.55
2016-04-05T07:43:49.573Z,24.35
2016-04-05T07:44:49.575Z,24.07
2016-04-05T07:45:49.610Z,24.35
2016-04-05T07:46:49.597Z,24.45
2016-04-05T07:47:49.599Z,24.45
2016-04-05T07:48:49.602Z,24.35
2016-04-05T07:49:49.621Z,24.26
2016-04-05T07:50:49.624Z,24.27
2016-04-05T07:51:49.626Z,24.26
2016-04-05T07:52:49.629Z,24.27
2016-04-05T07:53:49.647Z,23.97
2016-04-05T07:54:49.649Z,24.27
2016-04-05T07:55:49.652Z,24.08
2016-04-05T07:56:49.671Z,23.97
2016-04-05T07:57:49.657Z,23.97
2016-04-05T07:58:49.676Z,24.08
2016-04-05T07:59:49.679Z,23.98
2016-04-05T08:00:49.696Z,23.98
2016-04-05T08:01:49.699Z,23.98
2016-04-05T08:02:49.733Z,24.37
2016-04-05T08:03:49.737Z,24.08
2016-04-05T08:04:49.723Z,24.17
2016-04-05T08:05:49.742Z,24.08
2016-04-05T08:06:49.729Z,23.79
2016-04-05T08:07:49.731Z,23.98
2016-04-05T08:08:49.734Z,24.17
2016-04-05T08:09:49.753Z,23.98
2016-04-05T08:10:49.770Z,24.08
2016-04-05T08:11:49.758Z,24.17
2016-04-05T08:12:49.760Z,23.98
2016-04-05T08:13:49.779Z,23.98
2016-04-05T08:14:49.797Z,24.08
2016-04-05T08:15:49.816Z,24.08
2016-04-05T08:16:49.786Z,24.08
2016-04-05T08:17:49.805Z,23.88
2016-04-05T08:18:49.808Z,24.27
2016-04-05T08:19:49.810Z,24.46
2016-04-05T08:20:49.814Z,24.17
2016-04-05T08:21:49.832Z,24.45
2016-04-05T08:22:49.849Z,23.79
2016-04-05T08:23:49.837Z,24.45
2016-04-05T08:24:49.854Z,24.35
2016-04-05T08:25:49.874Z,24.46
2016-04-05T08:26:49.860Z,24.17
2016-04-05T08:27:49.863Z,24.08
2016-04-05T08:28:49.882Z,23.98
2016-04-05T08:29:49.884Z,24.66
2016-04-05T08:30:49.902Z,24.74
2016-04-05T08:31:49.890Z,25.14
2016-04-05T08:32:49.907Z,24.84
2016-04-05T08:33:49.910Z,25.51
2016-04-05T08:34:49.913Z,25.32
2016-04-05T08:35:49.916Z,25.32
2016-04-05T08:36:49.934Z,25.13
2016-04-05T08:37:49.937Z,25.23
2016-04-05T08:38:49.939Z,25.42
2016-04-05T08:39:49.942Z,25.42
2016-04-05T08:40:49.961Z,25.43
2016-04-05T08:41:49.963Z,25.61
2016-04-05T08:42:49.967Z,25.99
2016-04-05T08:43:50.000Z,25.51
2016-04-05T08:44:50.002Z,25.99
2016-04-05T08:45:50.052Z,25.81
2016-04-05T08:46:49.992Z,25.81
2016-04-05T08:47:50.011Z,26.09
2016-04-05T08:48:50.013Z,25.9
2016-04-05T08:49:50.017Z,25.9
2016-04-05T08:50:50.019Z,25.9
2016-04-05T08:51:50.037Z,26.09
2016-04-05T08:52:50.024Z,25.81
2016-04-05T08:53:50.042Z,25.99
2016-04-05T08:54:50.046Z,25.92
2016-04-05T08:55:50.048Z,25.99
2016-04-05T08:56:50.066Z,25.9
2016-04-05T08:57:50.069Z,25.9
2016-04-05T08:58:50.071Z,25.92
2016-04-05T08:59:50.090Z,25.99
2016-04-05T09:00:50.124Z,25.99
2016-04-05T09:01:50.110Z,26.09
2016-04-05T09:02:50.098Z,26.29
2016-04-05T09:03:50.101Z,26.1
2016-04-05T09:04:50.119Z,26.48
2016-04-05T09:05:50.121Z,26.4
2016-04-05T09:06:50.140Z,26.59
2016-04-05T09:07:50.126Z,26.29
2016-04-05T09:08:50.145Z,26.5
2016-04-05T09:09:50.153Z,26.68
2016-04-05T09:10:50.155Z,26.48
2016-04-05T09:11:50.159Z,26.59
2016-04-05T09:12:50.161Z,26.98
2016-04-05T09:13:50.164Z,26.67
2016-04-05T09:14:50.182Z,27.08
2016-04-05T09:15:50.247Z,26.59
2016-04-05T09:16:50.188Z,26.67
2016-04-05T09:17:50.190Z,26.77
2016-04-05T09:18:50.208Z,26.88
2016-04-05T09:19:50.211Z,26.97
2016-04-05T09:20:50.230Z,27.26
2016-04-05T09:21:50.216Z,27.45
2016-04-05T09:22:50.235Z,26.97
2016-04-05T09:23:50.238Z,27.15
2016-04-05T09:24:50.240Z,26.87
2016-04-05T09:25:50.243Z,26.67
2016-04-05T09:26:50.260Z,26.88
2016-04-05T09:27:50.264Z,27.25
2016-04-05T09:28:50.266Z,27.15
2016-04-05T09:29:50.285Z,27.45
2016-04-05T09:30:50.287Z,27.15
2016-04-05T09:31:50.290Z,27.35
2016-04-05T09:32:50.293Z,27.64
2016-04-05T09:33:50.311Z,27.45
2016-04-05T09:34:50.314Z,27.55
2016-04-05T09:35:50.317Z,27.36
2016-04-05T09:36:50.320Z,27.64
2016-04-05T09:37:50.338Z,27.46
2016-04-05T09:38:50.340Z,27.35
2016-04-05T09:39:50.328Z,27.83
2016-04-05T09:40:50.345Z,27.55
2016-04-05T09:41:50.348Z,27.45
2016-04-05T09:42:50.366Z,27.55
2016-04-05T09:43:50.370Z,28.03
2016-04-05T09:44:50.372Z,27.64
2016-04-05T09:45:50.436Z,28.31
2016-04-05T09:46:50.393Z,27.73
2016-04-05T09:47:50.380Z,27.83
2016-04-05T09:48:50.398Z,28.03
2016-04-05T09:49:50.401Z,27.83
2016-04-05T09:50:50.420Z,28.13
2016-04-05T09:51:50.422Z,28.03
2016-04-05T09:52:50.424Z,27.93
2016-04-05T09:53:50.428Z,28.22
2016-04-05T09:54:50.430Z,28.03
2016-04-05T09:55:50.433Z,28.13
2016-04-05T09:56:50.435Z,28.22
2016-04-05T09:57:50.469Z,28.31
2016-04-05T09:58:50.457Z,28.03
2016-04-05T09:59:50.459Z,28.13
2016-04-05T10:00:50.477Z,28.13
2016-04-05T10:01:50.479Z,28.13
2016-04-05T10:02:50.499Z,28.22
2016-04-05T10:03:50.485Z,28.13
2016-04-05T10:04:50.504Z,28.13
2016-04-05T10:05:50.506Z,27.93
2016-04-05T10:06:50.509Z,28.22
2016-04-05T10:07:50.511Z,28.8
2016-04-05T10:08:50.530Z,28.51
2016-04-05T10:09:50.533Z,28.41
2016-04-05T10:10:50.535Z,28.61
2016-04-05T10:11:50.381Z,28.61
2016-04-05T10:12:50.541Z,28.51
2016-04-05T10:13:50.559Z,28.22
2016-04-05T10:14:50.562Z,28.22
2016-04-05T10:15:50.581Z,28.7
2016-04-05T10:16:50.583Z,28.04
2016-04-05T10:17:50.586Z,28.23
2016-04-05T10:18:50.589Z,27.85
2016-04-05T10:19:50.591Z,27.94
2016-04-05T10:20:50.594Z,29.01
2016-04-05T10:21:50.612Z,28.23
2016-04-05T10:22:50.630Z,27.94
2016-04-05T10:23:50.633Z,28.23
2016-04-05T10:24:50.620Z,27.75
2016-04-05T10:25:50.639Z,28.14
2016-04-05T10:26:50.641Z,28.04
2016-04-05T10:27:50.660Z,28.23
2016-04-05T10:28:50.663Z,29.01
2016-04-05T10:29:50.665Z,28.43
2016-04-05T10:30:50.668Z,28.91
2016-04-05T10:31:50.670Z,29.01
2016-04-05T10:32:50.673Z,28.43
2016-04-05T10:33:50.691Z,28.52
2016-04-05T10:34:50.694Z,28.62
2016-04-05T10:35:50.696Z,27.85
2016-04-05T10:36:50.699Z,28.52
2016-04-05T10:37:50.717Z,28.52
2016-04-05T10:38:50.720Z,28.23
2016-04-05T10:39:50.723Z,28.72
2016-04-05T10:40:50.741Z,28.81
2016-04-05T10:41:50.744Z,28.43
2016-04-05T10:42:50.747Z,28.62
2016-04-05T10:43:50.780Z,27.94
2016-04-05T10:44:50.768Z,29.3
2016-04-05T10:45:50.770Z,29.49
2016-04-05T10:46:50.789Z,29.6
2016-04-05T10:47:50.791Z,28.91
2016-04-05T10:48:50.778Z,28.73
2016-04-05T10:49:50.797Z,28.15
2016-04-05T10:50:50.799Z,28.15
2016-04-05T10:51:50.802Z,28.15
2016-04-05T10:52:50.821Z,27.76
2016-04-05T10:53:50.823Z,27.49
2016-04-05T10:54:50.841Z,27.96
2016-04-05T10:55:50.828Z,27.86
2016-04-05T10:56:50.847Z,27.76
2016-04-05T10:57:50.849Z,27.86
2016-04-05T10:58:50.852Z,28.05
2016-04-05T10:59:50.855Z,27.47
2016-04-05T11:00:50.874Z,27.47
2016-04-05T11:01:50.876Z,28.07
2016-04-05T11:02:50.894Z,27.29
2016-04-05T11:03:50.896Z,27.28
2016-04-05T11:04:50.916Z,27.78
2016-04-05T11:05:50.902Z,27.09
2016-04-05T11:06:50.921Z,27.67
2016-04-05T11:07:50.770Z,27.29
2016-04-05T11:08:50.923Z,27.47
2016-04-05T11:09:50.927Z,27.58
2016-04-05T11:10:50.945Z,27.39
2016-04-05T11:11:50.948Z,27.68
2016-04-05T11:12:50.950Z,26.99
2016-04-05T11:13:50.968Z,27.68
2016-04-05T11:14:50.956Z,27.87
2016-04-05T11:15:50.974Z,27.1
2016-04-05T11:16:50.977Z,28.07
2016-04-05T11:17:50.995Z,27.76
2016-04-05T11:18:50.998Z,27.97
2016-04-05T11:19:51.001Z,27.67
2016-04-05T11:20:51.003Z,28.07
2016-04-05T11:21:51.006Z,28.07
2016-04-05T11:22:51.025Z,27.58
2016-04-05T11:23:51.028Z,28.25
2016-04-05T11:24:51.045Z,27.96
2016-04-05T11:25:51.047Z,27.19
2016-04-05T11:26:51.035Z,27.97
2016-04-05T11:27:51.053Z,27.96
2016-04-05T11:28:51.072Z,27.47
2016-04-05T11:29:51.075Z,27.97
2016-04-05T11:30:51.077Z,27.68
2016-04-05T11:31:51.471Z,27.58
2016-04-05T11:32:51.099Z,27.97
2016-04-05T11:33:51.101Z,27.97
2016-04-05T11:34:51.104Z,27.29
2016-04-05T11:35:51.122Z,28.07
2016-04-05T11:36:51.124Z,27.78
2016-04-05T11:37:51.127Z,27.58
2016-04-05T11:38:51.129Z,27.68
2016-04-05T11:39:51.148Z,27.39
2016-04-05T11:40:51.151Z,27.58
2016-04-05T11:41:51.153Z,27.58
2016-04-05T11:42:51.171Z,27.68
2016-04-05T11:43:51.173Z,27.68
2016-04-05T11:44:51.176Z,27.78
2016-04-05T11:45:51.195Z,27.78
2016-04-05T11:46:51.213Z,27.58
2016-04-05T11:47:51.217Z,27.39
2016-04-05T11:48:51.219Z,27.49
2016-04-05T11:49:51.222Z,27
2016-04-05T11:50:51.224Z,27.97
2016-04-05T11:51:51.240Z,27.58
2016-04-05T11:52:51.235Z,27.68
2016-04-05T11:53:51.244Z,27.58
2016-04-05T11:54:51.238Z,27.78
2016-04-05T11:55:51.232Z,27.49
2016-04-05T11:56:51.227Z,27.39
2016-04-05T11:57:51.227Z,27.78
2016-04-05T11:58:51.226Z,27.29
2016-04-05T11:59:51.241Z,27.29
2016-04-05T12:00:51.257Z,27.58
2016-04-05T12:01:51.241Z,27.68
2016-04-05T12:02:51.243Z,27.78
2016-04-05T12:03:51.276Z,27.1
2016-04-05T12:04:51.261Z,27.58
2016-04-05T12:05:51.278Z,27.68
2016-04-05T12:06:51.281Z,27.39
2016-04-05T12:07:51.283Z,27.2
2016-04-05T12:08:51.300Z,27.87
2016-04-05T12:09:51.302Z,27.1
2016-04-05T12:10:51.304Z,27.68
2016-04-05T12:11:51.323Z,27.58
2016-04-05T12:12:51.310Z,27.68
2016-04-05T12:13:51.328Z,27.2
2016-04-05T12:14:51.331Z,27.1
2016-04-05T12:15:51.350Z,27.49
2016-04-05T12:16:51.352Z,27.58
2016-04-05T12:17:51.355Z,27.49
2016-04-05T12:18:51.358Z,27.68
2016-04-05T12:19:51.376Z,27.49
2016-04-05T12:20:51.378Z,27.49
2016-04-05T12:21:51.381Z,27.49
2016-04-05T12:22:51.383Z,27.78
2016-04-05T12:23:51.402Z,27.68
2016-04-05T12:24:51.405Z,27.49
2016-04-05T12:25:51.408Z,27.78
2016-04-05T12:26:51.426Z,27.68
2016-04-05T12:27:51.429Z,27.29
2016-04-05T12:28:51.446Z,27.29
2016-04-05T12:29:51.450Z,27.6
2016-04-05T12:31:05.565Z,27
2016-04-05T12:31:51.455Z,27.87
2016-04-05T12:32:51.473Z,27.79
2016-04-05T12:33:51.476Z,27.29
2016-04-05T12:34:51.478Z,27.1
2016-04-05T12:35:51.481Z,27.31
2016-04-05T12:36:51.499Z,27.31
2016-04-05T12:37:51.502Z,27.31
2016-04-05T12:38:51.505Z,27.31
2016-04-05T12:39:51.524Z,27.4
2016-04-05T12:40:51.526Z,27.21
2016-04-05T12:41:51.528Z,27.31
2016-04-05T12:42:51.547Z,27.21
2016-04-05T12:43:51.550Z,27.21
2016-04-05T12:44:51.553Z,27.6
2016-04-05T12:45:51.556Z,27.31
2016-04-05T12:46:51.573Z,27.7
2016-04-05T12:47:51.575Z,27.01
2016-04-05T12:48:51.423Z,27.79
2016-04-05T12:49:51.582Z,27.79
2016-04-05T12:50:51.600Z,27.7
2016-04-05T12:51:51.603Z,27.6
2016-04-05T12:52:51.606Z,27.21
2016-04-05T12:53:51.608Z,27.21
2016-04-05T12:54:51.627Z,27.7
2016-04-05T12:55:51.644Z,27.31
2016-04-05T12:56:51.632Z,27.21